createdAt,value
2018-08-10T00:01:45.379Z,18.31
2018-08-10T00:05:10.750Z,18.58
2018-08-10T00:08:35.250Z,18.65
2018-08-10T00:11:59.850Z,18.64
2018-08-10T00:15:24.439Z,18.40
2018-08-10T00:18:48.846Z,18.60
2018-08-10T00:22:13.330Z,18.68
2018-08-10T00:25:37.869Z,18.97
2018-08-10T00:29:02.690Z,18.67
2018-08-10T00:32:27.188Z,18.76
2018-08-10T00:35:51.631Z,18.62
2018-08-10T00:39:16.056Z,18.59
2018-08-10T00:42:41.127Z,18.68
2018-08-10T00:46:05.778Z,18.66
2018-08-10T00:49:30.336Z,18.31
2018-08-10T00:52:54.804Z,18.57
2018-08-10T00:56:19.296Z,18.40
2018-08-10T00:59:43.774Z,18.40
2018-08-10T01:03:08.234Z,18.35
2018-08-10T01:06:32.711Z,18.11
2018-08-10T01:09:57.113Z,18.47
2018-08-10T01:13:21.624Z,18.55
2018-08-10T01:16:46.028Z,18.26
2018-08-10T01:20:18.143Z,18.26
2018-08-10T01:23:42.557Z,17.97
2018-08-10T01:27:11.232Z,17.99
2018-08-10T01:30:36.392Z,17.83
2018-08-10T01:34:00.761Z,17.94
2018-08-10T01:37:25.181Z,17.73
2018-08-10T01:40:49.643Z,17.86
2018-08-10T01:44:14.077Z,17.69
2018-08-10T01:47:38.556Z,17.74
2018-08-10T01:51:02.994Z,17.78
2018-08-10T01:54:27.406Z,17.59
2018-08-10T01:57:51.855Z,17.65
2018-08-10T02:01:16.289Z,17.30
2018-08-10T02:04:40.708Z,17.56
2018-08-10T02:08:05.167Z,17.39
2018-08-10T02:11:29.564Z,17.37
2018-08-10T02:14:53.983Z,17.47
2018-08-10T02:18:18.418Z,17.42
2018-08-10T02:21:42.888Z,17.50
2018-08-10T02:25:09.029Z,17.27
2018-08-10T02:28:33.490Z,17.24
2018-08-10T02:31:57.927Z,17.41
2018-08-10T02:35:22.384Z,17.48
2018-08-10T02:38:46.799Z,17.19
2018-08-10T02:42:11.213Z,17.29
2018-08-10T02:45:35.690Z,17.10
2018-08-10T02:49:00.085Z,17.05
2018-08-10T02:52:24.827Z,16.93
2018-08-10T02:55:49.267Z,16.92
2018-08-10T02:59:13.734Z,16.80
2018-08-10T03:02:38.165Z,16.86
2018-08-10T03:06:02.620Z,16.88
2018-08-10T03:09:27.113Z,16.74
2018-08-10T03:12:51.553Z,16.80
2018-08-10T03:16:15.964Z,16.80
2018-08-10T03:19:40.410Z,17.05
2018-08-10T03:23:04.882Z,16.73
2018-08-10T03:26:29.333Z,16.50
2018-08-10T03:29:53.765Z,16.63
2018-08-10T03:33:18.232Z,16.60
2018-08-10T03:36:42.778Z,16.43
2018-08-10T03:40:11.092Z,16.59
2018-08-10T03:43:35.515Z,16.54
2018-08-10T03:46:59.925Z,16.41
2018-08-10T03:50:24.365Z,16.40
2018-08-10T03:53:48.811Z,16.38
2018-08-10T03:57:13.264Z,16.56
2018-08-10T04:00:37.720Z,16.62
2018-08-10T04:04:02.318Z,16.65
2018-08-10T04:07:26.772Z,16.78
2018-08-10T04:10:51.225Z,16.68
2018-08-10T04:14:15.660Z,16.76
2018-08-10T04:17:40.069Z,16.65
2018-08-10T04:21:04.570Z,16.54
2018-08-10T04:24:29.060Z,16.89
2018-08-10T04:27:53.557Z,16.62
2018-08-10T04:31:18.049Z,16.57
2018-08-10T04:34:42.533Z,16.60
2018-08-10T04:38:07.113Z,16.41
2018-08-10T04:41:31.557Z,16.61
2018-08-10T04:44:56.043Z,16.63
2018-08-10T04:48:20.531Z,16.48
2018-08-10T04:51:44.956Z,16.65
2018-08-10T04:55:09.464Z,16.43
2018-08-10T04:58:33.873Z,16.77
2018-08-10T05:01:58.345Z,16.75
2018-08-10T05:05:22.796Z,16.86
2018-08-10T05:08:47.225Z,16.97
2018-08-10T05:12:11.644Z,16.93
2018-08-10T05:15:36.130Z,16.92
2018-08-10T05:19:00.533Z,17.09
2018-08-10T05:22:24.986Z,16.88
2018-08-10T05:25:49.457Z,17.02
2018-08-10T05:29:13.915Z,16.98
2018-08-10T05:32:38.344Z,16.99
2018-08-10T05:36:02.805Z,17.28
2018-08-10T05:39:27.264Z,17.37
2018-08-10T05:42:51.702Z,17.46
2018-08-10T05:46:16.225Z,17.14
2018-08-10T05:49:40.591Z,17.53
2018-08-10T05:53:05.041Z,17.84
2018-08-10T05:56:29.478Z,17.74
2018-08-10T05:59:53.905Z,17.86
2018-08-10T06:03:18.367Z,17.85
2018-08-10T06:06:42.776Z,18.06
2018-08-10T06:10:09.109Z,18.21
2018-08-10T06:13:33.626Z,18.28
2018-08-10T06:16:58.135Z,18.43
2018-08-10T06:20:22.545Z,18.41
2018-08-10T06:23:46.977Z,18.67
2018-08-10T06:27:11.497Z,18.70
2018-08-10T06:30:35.939Z,18.68
2018-08-10T06:34:00.445Z,18.82
2018-08-10T06:37:24.789Z,19.13
2018-08-10T06:40:49.179Z,19.32
2018-08-10T06:44:13.596Z,18.91
2018-08-10T06:47:38.521Z,18.76
2018-08-10T06:51:02.981Z,18.98
2018-08-10T06:54:27.424Z,19.03
2018-08-10T06:57:51.797Z,19.08
2018-08-10T07:01:16.181Z,19.01
2018-08-10T07:04:40.635Z,19.41
2018-08-10T07:08:05.040Z,19.46
2018-08-10T07:11:29.445Z,19.63
2018-08-10T07:14:53.888Z,19.74
2018-08-10T07:18:18.375Z,19.84
2018-08-10T07:21:42.830Z,20.45
2018-08-10T07:25:07.897Z,20.10
2018-08-10T07:28:32.304Z,20.15
2018-08-10T07:31:56.786Z,20.01
2018-08-10T07:35:21.220Z,20.12
2018-08-10T07:38:45.644Z,19.90
2018-08-10T07:42:10.078Z,20.09
2018-08-10T07:45:34.523Z,20.22
2018-08-10T07:48:59.142Z,20.57
2018-08-10T07:52:24.115Z,20.66
2018-08-10T07:55:48.584Z,20.63
2018-08-10T07:59:13.085Z,20.30
2018-08-10T08:02:37.886Z,20.46
2018-08-10T08:06:02.325Z,20.29
2018-08-10T08:09:26.804Z,20.45
2018-08-10T08:12:51.326Z,21.13
2018-08-10T08:16:15.783Z,21.33
2018-08-10T08:19:40.349Z,21.22
2018-08-10T08:23:05.700Z,21.54
2018-08-10T08:26:30.292Z,21.34
2018-08-10T08:29:54.781Z,21.39
2018-08-10T08:33:19.338Z,21.56
2018-08-10T08:36:43.841Z,21.18
2018-08-10T08:40:16.681Z,21.84
2018-08-10T08:46:04.660Z,21.91
2018-08-10T08:49:29.061Z,21.72
2018-08-10T08:52:53.546Z,22.46
2018-08-10T08:56:19.505Z,22.45
2018-08-10T08:59:43.992Z,21.34
2018-08-10T09:03:19.263Z,21.14
2018-08-10T09:06:43.716Z,21.12
2018-08-10T09:10:15.632Z,21.13
2018-08-10T09:14:54.503Z,21.14
2018-08-10T09:18:19.041Z,21.43
2018-08-10T09:25:12.005Z,21.60
2018-08-10T09:28:36.426Z,21.51
2018-08-10T09:32:00.859Z,21.91
2018-08-10T09:35:25.369Z,22.09
2018-08-10T09:38:49.786Z,22.09
2018-08-10T09:42:14.304Z,22.18
2018-08-10T09:45:38.723Z,23.01
2018-08-10T09:49:03.122Z,22.75
2018-08-10T09:52:27.604Z,23.52
2018-08-10T09:55:52.082Z,23.16
2018-08-10T09:59:16.520Z,23.03
2018-08-10T10:02:45.047Z,22.81
2018-08-10T10:06:09.537Z,23.63
2018-08-10T10:09:33.999Z,24.12
2018-08-10T10:12:58.750Z,22.68
2018-08-10T10:16:23.206Z,22.94
2018-08-10T10:19:47.660Z,23.24
2018-08-10T10:23:12.193Z,24.30
2018-08-10T10:26:36.634Z,24.87
2018-08-10T10:30:01.136Z,24.69
2018-08-10T10:33:26.995Z,24.00
2018-08-10T10:36:51.518Z,24.62
2018-08-10T10:40:15.900Z,26.17
2018-08-10T10:43:40.305Z,28.15
2018-08-10T10:47:04.823Z,28.27
2018-08-10T10:50:29.283Z,28.14
2018-08-10T10:53:53.709Z,26.08
2018-08-10T10:57:18.274Z,25.91
2018-08-10T11:00:42.792Z,27.53
2018-08-10T11:04:07.274Z,30.06
2018-08-10T11:07:31.751Z,30.85
2018-08-10T11:10:56.146Z,29.59
2018-08-10T11:14:20.650Z,29.47
2018-08-10T11:17:45.060Z,30.45
2018-08-10T11:21:09.620Z,30.53
2018-08-10T11:24:34.097Z,30.82
2018-08-10T11:27:58.595Z,31.73
2018-08-10T11:31:23.054Z,31.33
2018-08-10T11:34:47.494Z,30.20
2018-08-10T11:38:11.947Z,28.95
2018-08-10T11:41:36.450Z,30.39
2018-08-10T11:45:01.098Z,29.04
2018-08-10T11:48:25.504Z,29.82
2018-08-10T11:51:49.988Z,31.25
2018-08-10T11:55:15.290Z,32.85
2018-08-10T11:58:39.719Z,32.77
2018-08-10T12:02:04.228Z,34.23
2018-08-10T12:05:28.698Z,31.37
2018-08-10T12:08:53.114Z,30.30
2018-08-10T12:12:17.543Z,30.99
2018-08-10T12:15:42.023Z,29.32
2018-08-10T12:19:06.557Z,29.01
2018-08-10T12:22:31.016Z,30.33
2018-08-10T12:25:55.478Z,28.51
2018-08-10T12:29:19.978Z,29.17
2018-08-10T12:32:44.447Z,28.35
2018-08-10T12:36:09.749Z,29.39
2018-08-10T12:39:34.156Z,32.38
2018-08-10T12:42:58.584Z,31.03
2018-08-10T12:46:23.079Z,30.15
2018-08-10T12:49:47.503Z,29.52
2018-08-10T12:53:11.998Z,29.90
2018-08-10T12:56:36.452Z,31.36
2018-08-10T13:00:00.937Z,31.84
2018-08-10T13:03:25.404Z,32.87
2018-08-10T13:06:49.844Z,31.97
2018-08-10T13:10:14.266Z,31.68
2018-08-10T13:13:38.648Z,31.40
2018-08-10T13:17:03.096Z,31.06
2018-08-10T13:20:27.579Z,28.49
2018-08-10T13:23:52.194Z,28.43
2018-08-10T13:27:16.649Z,29.19
2018-08-10T13:30:41.148Z,31.31
2018-08-10T13:34:05.789Z,30.89
2018-08-10T13:37:30.354Z,31.48
2018-08-10T13:40:54.857Z,32.44
2018-08-10T13:44:19.313Z,34.42
2018-08-10T13:47:43.897Z,33.30
2018-08-10T13:51:08.452Z,31.97
2018-08-10T13:54:33.022Z,30.16
2018-08-10T13:57:57.608Z,28.75
2018-08-10T14:01:22.028Z,28.80
2018-08-10T14:04:46.458Z,33.19
2018-08-10T14:08:10.949Z,30.74
2018-08-10T14:11:35.592Z,30.36
2018-08-10T14:15:02.193Z,31.64
2018-08-10T14:18:26.639Z,31.29
2018-08-10T14:21:51.089Z,31.05
2018-08-10T14:25:15.553Z,28.18
2018-08-10T14:28:39.999Z,30.65
2018-08-10T14:32:04.444Z,33.14
2018-08-10T14:35:28.892Z,32.25
2018-08-10T14:38:53.399Z,32.88
2018-08-10T14:42:18.403Z,32.02
2018-08-10T14:45:42.868Z,32.34
2018-08-10T14:49:08.478Z,32.09
2018-08-10T14:52:32.934Z,32.34
2018-08-10T14:55:57.426Z,34.00
2018-08-10T14:59:21.912Z,33.21
2018-08-10T15:02:46.679Z,33.48
2018-08-10T15:06:11.038Z,32.86
2018-08-10T15:09:35.563Z,33.24
2018-08-10T15:13:00.105Z,33.40
2018-08-10T15:16:24.424Z,32.43
2018-08-10T15:19:48.877Z,32.91
2018-08-10T15:23:13.371Z,33.52
2018-08-10T15:26:38.112Z,33.50
2018-08-10T15:30:02.589Z,34.56
2018-08-10T15:33:27.187Z,34.98
2018-08-10T15:36:51.648Z,35.87
2018-08-10T15:40:19.357Z,33.54
2018-08-10T15:43:43.865Z,34.61
2018-08-10T15:47:08.379Z,31.80
2018-08-10T15:50:32.825Z,31.54
2018-08-10T15:53:57.280Z,29.72
2018-08-10T15:57:21.691Z,29.50
2018-08-10T16:00:46.127Z,30.79
2018-08-10T16:04:10.649Z,31.22
2018-08-10T16:07:35.039Z,30.05
2018-08-10T16:10:59.494Z,31.60
2018-08-10T16:14:23.992Z,30.46
2018-08-10T16:17:48.490Z,32.26
2018-08-10T16:21:13.037Z,31.89
2018-08-10T16:24:37.439Z,31.59
2018-08-10T16:28:01.928Z,32.84
2018-08-10T16:31:27.248Z,31.15
2018-08-10T16:34:51.669Z,30.91
2018-08-10T16:38:16.114Z,30.67
2018-08-10T16:41:40.589Z,29.92
2018-08-10T16:45:05.425Z,29.51
2018-08-10T16:48:29.837Z,29.61
2018-08-10T16:51:54.296Z,28.33
2018-08-10T16:55:19.907Z,28.64
2018-08-10T16:58:44.381Z,27.98
2018-08-10T17:02:09.924Z,28.71
2018-08-10T17:05:34.813Z,28.13
2018-08-10T17:08:59.288Z,27.30
2018-08-10T17:12:23.788Z,26.74
2018-08-10T17:15:48.327Z,27.30
2018-08-10T17:19:12.835Z,26.91
2018-08-10T17:22:37.270Z,26.62
2018-08-10T17:26:01.806Z,26.50
2018-08-10T17:29:26.296Z,26.31
2018-08-10T17:32:50.814Z,26.45
2018-08-10T17:36:15.266Z,26.76
2018-08-10T17:39:39.676Z,26.10
2018-08-10T17:43:04.260Z,26.11
2018-08-10T17:46:28.692Z,26.53
2018-08-10T17:49:53.187Z,26.67
2018-08-10T17:53:17.668Z,26.42
2018-08-10T17:56:42.113Z,26.02
2018-08-10T18:00:10.166Z,25.54
2018-08-10T18:03:34.618Z,25.75
2018-08-10T18:06:59.135Z,25.53
2018-08-10T18:10:23.692Z,25.34
2018-08-10T18:13:48.169Z,25.08
2018-08-10T18:17:12.637Z,25.25
2018-08-10T18:20:38.031Z,25.52
2018-08-10T18:24:02.491Z,25.14
2018-08-10T18:27:27.084Z,24.67
2018-08-10T18:30:51.543Z,24.92
2018-08-10T18:34:16.138Z,24.52
2018-08-10T18:37:41.545Z,24.64
2018-08-10T18:41:20.210Z,24.90
2018-08-10T18:44:45.335Z,24.82
2018-08-10T18:48:10.199Z,24.34
2018-08-10T18:51:34.689Z,24.48
2018-08-10T18:55:00.187Z,24.48
2018-08-10T18:58:25.386Z,24.22
2018-08-10T19:01:50.994Z,24.26
2018-08-10T19:05:16.741Z,24.37
2018-08-10T19:08:42.138Z,24.23
2018-08-10T19:12:07.352Z,24.47
2018-08-10T19:15:31.856Z,24.18
2018-08-10T19:18:56.440Z,24.29
2018-08-10T19:22:21.284Z,24.07
2018-08-10T19:25:46.196Z,24.17
2018-08-10T19:29:12.617Z,23.94
2018-08-10T19:32:37.078Z,23.84
2018-08-10T19:36:01.851Z,23.80
2018-08-10T19:39:26.988Z,23.79
2018-08-10T19:42:51.995Z,23.77
2018-08-10T19:46:16.800Z,23.60
2018-08-10T19:49:42.067Z,23.62
2018-08-10T19:53:06.661Z,23.63
2018-08-10T19:56:33.154Z,23.63
2018-08-10T19:59:58.166Z,23.52
2018-08-10T20:03:23.777Z,23.29
2018-08-10T20:06:49.501Z,23.55
2018-08-10T20:10:15.974Z,23.33
2018-08-10T20:13:41.343Z,23.32
2018-08-10T20:17:07.720Z,23.22
2018-08-10T20:20:32.608Z,23.24
2018-08-10T20:23:57.728Z,23.22
2018-08-10T20:27:22.430Z,23.16
2018-08-10T20:30:47.110Z,23.15
2018-08-10T20:34:13.114Z,22.96
2018-08-10T20:37:38.543Z,22.69
2018-08-10T20:41:04.039Z,22.89
2018-08-10T20:44:29.545Z,22.73
2018-08-10T20:47:54.285Z,22.84
2018-08-10T20:51:19.594Z,22.92
2018-08-10T20:54:48.001Z,22.90
2018-08-10T20:58:13.155Z,22.76
2018-08-10T21:01:38.955Z,22.70
2018-08-10T21:05:04.849Z,22.72
2018-08-10T21:08:29.702Z,22.69
2018-08-10T21:11:54.759Z,22.59
2018-08-10T21:15:20.993Z,22.70
2018-08-10T21:18:45.505Z,22.50
2018-08-10T21:22:10.188Z,22.46
2018-08-10T21:25:35.144Z,22.24
2018-08-10T21:29:00.192Z,22.45
2018-08-10T21:32:24.940Z,22.58
2018-08-10T21:35:49.452Z,22.34
2018-08-10T21:39:14.324Z,22.34
2018-08-10T21:42:40.402Z,22.47
2018-08-10T21:46:05.984Z,22.36
2018-08-10T21:49:30.509Z,22.57
2018-08-10T21:52:55.652Z,22.56
2018-08-10T21:56:20.420Z,22.31
2018-08-10T21:59:44.973Z,22.46
2018-08-10T22:03:10.726Z,22.27
2018-08-10T22:06:35.564Z,22.35
2018-08-10T22:10:00.497Z,22.09
2018-08-10T22:13:30.429Z,21.82
2018-08-10T22:17:00.039Z,21.93
2018-08-10T22:20:24.489Z,22.06
2018-08-10T22:23:48.999Z,21.71
2018-08-10T22:27:13.514Z,21.73
2018-08-10T22:30:38.080Z,21.69
2018-08-10T22:34:02.567Z,21.83
2018-08-10T22:37:27.052Z,21.94
2018-08-10T22:40:51.513Z,21.91
2018-08-10T22:44:15.987Z,21.85
2018-08-10T22:47:40.435Z,21.78
2018-08-10T22:51:04.980Z,21.75
2018-08-10T22:54:29.449Z,21.66
2018-08-10T22:57:53.994Z,21.68
2018-08-10T23:01:18.383Z,21.82
2018-08-10T23:04:44.067Z,21.67
2018-08-10T23:08:08.839Z,21.50
2018-08-10T23:11:33.304Z,21.57
2018-08-10T23:14:57.808Z,21.49
2018-08-10T23:18:22.307Z,21.53
2018-08-10T23:21:46.740Z,21.63
2018-08-10T23:25:13.622Z,21.72
2018-08-10T23:28:38.098Z,21.31
2018-08-10T23:32:02.593Z,21.23
2018-08-10T23:35:27.088Z,21.15
2018-08-10T23:38:51.474Z,21.38
2018-08-10T23:42:15.971Z,21.23
2018-08-10T23:45:40.354Z,21.33
2018-08-10T23:49:05.067Z,21.40
2018-08-10T23:52:29.490Z,21.44
2018-08-10T23:56:00.551Z,21.51
2018-08-10T23:59:25.220Z,21.23
